sensor_id;sensor_type;location;lat;lon;timestamp;P1;durP1;ratioP1;P2;durP2;ratioP2
59338;SDS011;45117;50.960;5.500;2023-07-30T00:01:01;7.68;;;2.20;;
59338;SDS011;45117;50.960;5.500;2023-07-30T00:03:29;9.93;;;3.03;;
59338;SDS011;45117;50.960;5.500;2023-07-30T00:05:55;5.03;;;1.85;;
59338;SDS011;45117;50.960;5.500;2023-07-30T00:08:22;7.18;;;2.30;;
59338;SDS011;45117;50.960;5.500;2023-07-30T00:10:49;8.88;;;2.00;;
59338;SDS011;45117;50.960;5.500;2023-07-30T00:13:16;5.25;;;1.92;;
59338;SDS011;45117;50.960;5.500;2023-07-30T00:15:43;8.38;;;2.08;;
59338;SDS011;45117;50.960;5.500;2023-07-30T00:18:12;5.90;;;2.00;;
59338;SDS011;45117;50.960;5.500;2023-07-30T00:20:40;7.72;;;2.13;;
59338;SDS011;45117;50.960;5.500;2023-07-30T00:23:07;6.50;;;2.05;;
59338;SDS011;45117;50.960;5.500;2023-07-30T00:25:33;5.50;;;2.03;;
59338;SDS011;45117;50.960;5.500;2023-07-30T00:28:00;5.10;;;1.55;;
59338;SDS011;45117;50.960;5.500;2023-07-30T00:30:26;6.22;;;1.88;;
59338;SDS011;45117;50.960;5.500;2023-07-30T00:32:53;4.20;;;1.95;;
59338;SDS011;45117;50.960;5.500;2023-07-30T00:35:19;6.68;;;2.08;;
59338;SDS011;45117;50.960;5.500;2023-07-30T00:37:48;5.20;;;2.00;;
59338;SDS011;45117;50.960;5.500;2023-07-30T00:40:15;6.90;;;1.80;;
59338;SDS011;45117;50.960;5.500;2023-07-30T00:42:41;6.55;;;2.03;;
59338;SDS011;45117;50.960;5.500;2023-07-30T00:45:09;8.98;;;2.47;;
59338;SDS011;45117;50.960;5.500;2023-07-30T00:47:36;5.05;;;2.05;;
59338;SDS011;45117;50.960;5.500;2023-07-30T00:50:04;5.70;;;2.15;;
59338;SDS011;45117;50.960;5.500;2023-07-30T00:52:31;5.13;;;2.50;;
59338;SDS011;45117;50.960;5.500;2023-07-30T00:55:00;5.72;;;2.38;;
59338;SDS011;45117;50.960;5.500;2023-07-30T00:57:28;7.88;;;2.22;;
59338;SDS011;45117;50.960;5.500;2023-07-30T00:59:56;5.03;;;2.00;;
59338;SDS011;45117;50.960;5.500;2023-07-30T01:02:23;7.63;;;2.33;;
59338;SDS011;45117;50.960;5.500;2023-07-30T01:04:50;4.25;;;2.10;;
59338;SDS011;45117;50.960;5.500;2023-07-30T01:07:17;5.88;;;2.10;;
59338;SDS011;45117;50.960;5.500;2023-07-30T01:09:44;10.48;;;2.42;;
59338;SDS011;45117;50.960;5.500;2023-07-30T01:12:19;10.00;;;2.45;;
59338;SDS011;45117;50.960;5.500;2023-07-30T01:14:46;6.43;;;2.35;;
59338;SDS011;45117;50.960;5.500;2023-07-30T01:17:14;5.95;;;2.40;;
59338;SDS011;45117;50.960;5.500;2023-07-30T01:19:41;7.40;;;2.67;;
59338;SDS011;45117;50.960;5.500;2023-07-30T01:22:09;5.40;;;2.55;;
59338;SDS011;45117;50.960;5.500;2023-07-30T01:24:36;5.47;;;2.33;;
59338;SDS011;45117;50.960;5.500;2023-07-30T01:27:04;7.10;;;2.40;;
59338;SDS011;45117;50.960;5.500;2023-07-30T01:29:33;6.93;;;2.38;;
59338;SDS011;45117;50.960;5.500;2023-07-30T01:32:05;7.05;;;2.20;;
59338;SDS011;45117;50.960;5.500;2023-07-30T01:34:34;10.40;;;2.75;;
59338;SDS011;45117;50.960;5.500;2023-07-30T01:37:03;8.25;;;2.60;;
59338;SDS011;45117;50.960;5.500;2023-07-30T01:39:32;6.60;;;2.10;;
59338;SDS011;45117;50.960;5.500;2023-07-30T01:42:02;6.50;;;2.25;;
59338;SDS011;45117;50.960;5.500;2023-07-30T01:44:29;7.53;;;2.10;;
59338;SDS011;45117;50.960;5.500;2023-07-30T01:46:55;5.35;;;2.38;;
59338;SDS011;45117;50.960;5.500;2023-07-30T01:49:22;7.28;;;2.40;;
59338;SDS011;45117;50.960;5.500;2023-07-30T01:51:49;9.73;;;2.75;;
59338;SDS011;45117;50.960;5.500;2023-07-30T01:54:18;8.80;;;2.42;;
59338;SDS011;45117;50.960;5.500;2023-07-30T01:56:46;9.35;;;2.90;;
59338;SDS011;45117;50.960;5.500;2023-07-30T01:59:13;7.72;;;2.10;;
59338;SDS011;45117;50.960;5.500;2023-07-30T02:01:39;8.48;;;2.30;;
59338;SDS011;45117;50.960;5.500;2023-07-30T02:04:06;5.45;;;2.35;;
59338;SDS011;45117;50.960;5.500;2023-07-30T02:06:33;9.68;;;2.15;;
59338;SDS011;45117;50.960;5.500;2023-07-30T02:08:59;10.27;;;2.33;;
59338;SDS011;45117;50.960;5.500;2023-07-30T02:11:26;8.02;;;2.20;;
59338;SDS011;45117;50.960;5.500;2023-07-30T02:13:54;3.70;;;1.88;;
59338;SDS011;45117;50.960;5.500;2023-07-30T02:16:21;9.63;;;2.42;;
59338;SDS011;45117;50.960;5.500;2023-07-30T02:18:47;7.35;;;2.22;;
59338;SDS011;45117;50.960;5.500;2023-07-30T02:21:14;9.60;;;2.60;;
59338;SDS011;45117;50.960;5.500;2023-07-30T02:23:41;13.32;;;2.35;;
59338;SDS011;45117;50.960;5.500;2023-07-30T02:26:07;11.43;;;2.50;;
59338;SDS011;45117;50.960;5.500;2023-07-30T02:28:34;4.93;;;2.22;;
59338;SDS011;45117;50.960;5.500;2023-07-30T02:31:02;11.60;;;2.20;;
59338;SDS011;45117;50.960;5.500;2023-07-30T02:33:29;7.00;;;2.15;;
59338;SDS011;45117;50.960;5.500;2023-07-30T02:35:55;5.25;;;2.03;;
59338;SDS011;45117;50.960;5.500;2023-07-30T02:38:22;8.40;;;1.98;;
59338;SDS011;45117;50.960;5.500;2023-07-30T02:40:48;9.50;;;2.25;;
59338;SDS011;45117;50.960;5.500;2023-07-30T02:43:15;6.00;;;2.00;;
59338;SDS011;45117;50.960;5.500;2023-07-30T02:45:41;9.40;;;2.22;;
59338;SDS011;45117;50.960;5.500;2023-07-30T02:48:09;8.52;;;2.40;;
59338;SDS011;45117;50.960;5.500;2023-07-30T02:50:36;6.60;;;2.33;;
59338;SDS011;45117;50.960;5.500;2023-07-30T02:53:02;8.82;;;2.50;;
59338;SDS011;45117;50.960;5.500;2023-07-30T02:55:29;11.35;;;2.92;;
59338;SDS011;45117;50.960;5.500;2023-07-30T02:57:56;6.57;;;2.30;;
59338;SDS011;45117;50.960;5.500;2023-07-30T03:00:22;4.88;;;2.30;;
59338;SDS011;45117;50.960;5.500;2023-07-30T03:02:49;4.88;;;1.98;;
59338;SDS011;45117;50.960;5.500;2023-07-30T03:05:17;7.88;;;1.98;;
59338;SDS011;45117;50.960;5.500;2023-07-30T03:07:43;11.73;;;2.10;;
59338;SDS011;45117;50.960;5.500;2023-07-30T03:10:16;5.47;;;1.80;;
59338;SDS011;45117;50.960;5.500;2023-07-30T03:12:45;7.82;;;1.88;;
59338;SDS011;45117;50.960;5.500;2023-07-30T03:15:12;7.35;;;1.70;;
59338;SDS011;45117;50.960;5.500;2023-07-30T03:17:39;5.60;;;1.60;;
59338;SDS011;45117;50.960;5.500;2023-07-30T03:20:06;8.00;;;1.90;;
59338;SDS011;45117;50.960;5.500;2023-07-30T03:22:35;7.30;;;1.75;;
59338;SDS011;45117;50.960;5.500;2023-07-30T03:25:01;8.07;;;1.50;;
59338;SDS011;45117;50.960;5.500;2023-07-30T03:27:28;8.45;;;1.77;;
59338;SDS011;45117;50.960;5.500;2023-07-30T03:29:55;8.93;;;2.15;;
59338;SDS011;45117;50.960;5.500;2023-07-30T03:32:22;7.80;;;1.80;;
59338;SDS011;45117;50.960;5.500;2023-07-30T03:34:48;6.65;;;1.60;;
59338;SDS011;45117;50.960;5.500;2023-07-30T03:37:15;4.68;;;1.23;;
59338;SDS011;45117;50.960;5.500;2023-07-30T03:39:43;6.63;;;1.40;;
59338;SDS011;45117;50.960;5.500;2023-07-30T03:42:09;6.53;;;1.25;;
59338;SDS011;45117;50.960;5.500;2023-07-30T03:44:36;6.28;;;1.25;;
59338;SDS011;45117;50.960;5.500;2023-07-30T03:47:04;4.68;;;1.13;;
59338;SDS011;45117;50.960;5.500;2023-07-30T03:49:30;8.68;;;1.65;;
59338;SDS011;45117;50.960;5.500;2023-07-30T03:51:57;3.30;;;0.98;;
59338;SDS011;45117;50.960;5.500;2023-07-30T03:54:24;8.48;;;1.20;;
59338;SDS011;45117;50.960;5.500;2023-07-30T03:56:52;6.63;;;1.48;;
59338;SDS011;45117;50.960;5.500;2023-07-30T03:59:19;3.58;;;1.20;;
59338;SDS011;45117;50.960;5.500;2023-07-30T04:01:45;6.53;;;1.10;;
59338;SDS011;45117;50.960;5.500;2023-07-30T04:04:12;8.07;;;1.85;;
59338;SDS011;45117;50.960;5.500;2023-07-30T04:06:39;8.88;;;1.50;;
59338;SDS011;45117;50.960;5.500;2023-07-30T04:09:06;6.18;;;1.30;;
59338;SDS011;45117;50.960;5.500;2023-07-30T04:11:33;5.57;;;1.25;;
59338;SDS011;45117;50.960;5.500;2023-07-30T04:14:01;4.60;;;1.58;;
59338;SDS011;45117;50.960;5.500;2023-07-30T04:16:30;3.35;;;1.10;;
59338;SDS011;45117;50.960;5.500;2023-07-30T04:19:00;5.45;;;1.10;;
59338;SDS011;45117;50.960;5.500;2023-07-30T04:21:29;3.88;;;1.13;;
59338;SDS011;45117;50.960;5.500;2023-07-30T04:23:56;5.78;;;1.40;;
59338;SDS011;45117;50.960;5.500;2023-07-30T04:26:22;8.30;;;1.35;;
59338;SDS011;45117;50.960;5.500;2023-07-30T04:28:49;6.80;;;1.15;;
59338;SDS011;45117;50.960;5.500;2023-07-30T04:31:17;4.43;;;1.15;;
59338;SDS011;45117;50.960;5.500;2023-07-30T04:33:44;5.38;;;1.10;;
59338;SDS011;45117;50.960;5.500;2023-07-30T04:36:10;4.75;;;1.10;;
59338;SDS011;45117;50.960;5.500;2023-07-30T04:38:37;6.97;;;1.20;;
59338;SDS011;45117;50.960;5.500;2023-07-30T04:41:04;4.15;;;1.30;;
59338;SDS011;45117;50.960;5.500;2023-07-30T04:43:30;5.50;;;1.17;;
59338;SDS011;45117;50.960;5.500;2023-07-30T04:45:57;8.05;;;1.13;;
59338;SDS011;45117;50.960;5.500;2023-07-30T04:48:25;6.13;;;1.00;;
59338;SDS011;45117;50.960;5.500;2023-07-30T04:50:51;6.15;;;1.20;;
59338;SDS011;45117;50.960;5.500;2023-07-30T04:53:18;4.18;;;0.90;;
59338;SDS011;45117;50.960;5.500;2023-07-30T04:55:45;4.85;;;1.25;;
59338;SDS011;45117;50.960;5.500;2023-07-30T04:58:17;7.63;;;1.33;;
59338;SDS011;45117;50.960;5.500;2023-07-30T05:00:45;8.65;;;1.25;;
59338;SDS011;45117;50.960;5.500;2023-07-30T05:03:12;5.15;;;1.13;;
59338;SDS011;45117;50.960;5.500;2023-07-30T05:05:40;8.02;;;1.30;;
59338;SDS011;45117;50.960;5.500;2023-07-30T05:08:06;5.75;;;1.30;;
59338;SDS011;45117;50.960;5.500;2023-07-30T05:10:33;6.53;;;1.50;;
59338;SDS011;45117;50.960;5.500;2023-07-30T05:13:00;5.75;;;1.40;;
59338;SDS011;45117;50.960;5.500;2023-07-30T05:15:26;3.67;;;1.00;;
59338;SDS011;45117;50.960;5.500;2023-07-30T05:17:53;7.22;;;1.45;;
59338;SDS011;45117;50.960;5.500;2023-07-30T05:20:20;5.07;;;1.23;;
59338;SDS011;45117;50.960;5.500;2023-07-30T05:22:48;5.30;;;1.20;;
59338;SDS011;45117;50.960;5.500;2023-07-30T05:25:14;4.88;;;1.02;;
59338;SDS011;45117;50.960;5.500;2023-07-30T05:27:41;7.05;;;1.58;;
59338;SDS011;45117;50.960;5.500;2023-07-30T05:30:08;6.22;;;1.23;;
59338;SDS011;45117;50.960;5.500;2023-07-30T05:32:35;5.40;;;1.45;;
59338;SDS011;45117;50.960;5.500;2023-07-30T05:35:02;6.95;;;1.25;;
59338;SDS011;45117;50.960;5.500;2023-07-30T05:37:29;9.85;;;1.60;;
59338;SDS011;45117;50.960;5.500;2023-07-30T05:39:57;9.98;;;1.55;;
59338;SDS011;45117;50.960;5.500;2023-07-30T05:42:24;7.32;;;1.30;;
59338;SDS011;45117;50.960;5.500;2023-07-30T05:44:50;5.97;;;1.48;;
59338;SDS011;45117;50.960;5.500;2023-07-30T05:47:17;5.80;;;1.40;;
59338;SDS011;45117;50.960;5.500;2023-07-30T05:49:43;5.07;;;1.35;;
59338;SDS011;45117;50.960;5.500;2023-07-30T05:52:10;7.93;;;1.55;;
59338;SDS011;45117;50.960;5.500;2023-07-30T05:54:39;6.43;;;1.30;;
59338;SDS011;45117;50.960;5.500;2023-07-30T05:57:07;8.10;;;1.50;;
59338;SDS011;45117;50.960;5.500;2023-07-30T05:59:33;5.47;;;1.60;;
59338;SDS011;45117;50.960;5.500;2023-07-30T06:02:01;7.60;;;1.40;;
59338;SDS011;45117;50.960;5.500;2023-07-30T06:04:28;10.18;;;1.50;;
59338;SDS011;45117;50.960;5.500;2023-07-30T06:06:55;6.57;;;1.60;;
59338;SDS011;45117;50.960;5.500;2023-07-30T06:09:22;8.55;;;1.58;;
59338;SDS011;45117;50.960;5.500;2023-07-30T06:11:48;7.93;;;1.42;;
59338;SDS011;45117;50.960;5.500;2023-07-30T06:14:16;11.48;;;2.00;;
59338;SDS011;45117;50.960;5.500;2023-07-30T06:16:43;9.57;;;2.00;;
59338;SDS011;45117;50.960;5.500;2023-07-30T06:19:09;8.15;;;1.58;;
59338;SDS011;45117;50.960;5.500;2023-07-30T06:21:36;8.63;;;1.60;;
59338;SDS011;45117;50.960;5.500;2023-07-30T06:24:02;8.57;;;1.50;;
59338;SDS011;45117;50.960;5.500;2023-07-30T06:26:29;7.93;;;1.90;;
59338;SDS011;45117;50.960;5.500;2023-07-30T06:28:56;7.47;;;1.67;;
59338;SDS011;45117;50.960;5.500;2023-07-30T06:31:24;9.82;;;1.90;;
59338;SDS011;45117;50.960;5.500;2023-07-30T06:33:51;8.50;;;1.80;;
59338;SDS011;45117;50.960;5.500;2023-07-30T06:36:18;8.43;;;1.73;;
59338;SDS011;45117;50.960;5.500;2023-07-30T06:38:44;8.80;;;1.73;;
59338;SDS011;45117;50.960;5.500;2023-07-30T06:41:11;12.52;;;1.95;;
59338;SDS011;45117;50.960;5.500;2023-07-30T06:43:38;8.40;;;2.08;;
59338;SDS011;45117;50.960;5.500;2023-07-30T06:46:05;9.23;;;1.67;;
59338;SDS011;45117;50.960;5.500;2023-07-30T06:48:33;10.13;;;1.77;;
59338;SDS011;45117;50.960;5.500;2023-07-30T06:50:59;4.80;;;1.73;;
59338;SDS011;45117;50.960;5.500;2023-07-30T06:53:26;7.93;;;1.90;;
59338;SDS011;45117;50.960;5.500;2023-07-30T06:55:52;8.32;;;1.52;;
59338;SDS011;45117;50.960;5.500;2023-07-30T06:58:19;9.10;;;2.13;;
59338;SDS011;45117;50.960;5.500;2023-07-30T07:00:45;10.80;;;1.73;;
59338;SDS011;45117;50.960;5.500;2023-07-30T07:03:12;10.48;;;1.98;;
59338;SDS011;45117;50.960;5.500;2023-07-30T07:05:40;12.18;;;1.80;;
59338;SDS011;45117;50.960;5.500;2023-07-30T07:08:06;8.68;;;2.25;;
59338;SDS011;45117;50.960;5.500;2023-07-30T07:10:34;10.23;;;2.08;;
59338;SDS011;45117;50.960;5.500;2023-07-30T07:13:01;8.25;;;1.75;;
59338;SDS011;45117;50.960;5.500;2023-07-30T07:15:28;9.63;;;1.90;;
59338;SDS011;45117;50.960;5.500;2023-07-30T07:17:54;7.20;;;1.75;;
59338;SDS011;45117;50.960;5.500;2023-07-30T07:20:21;8.82;;;2.00;;
59338;SDS011;45117;50.960;5.500;2023-07-30T07:22:49;14.05;;;2.33;;
59338;SDS011;45117;50.960;5.500;2023-07-30T07:25:16;9.85;;;2.08;;
59338;SDS011;45117;50.960;5.500;2023-07-30T07:27:44;12.27;;;2.42;;
59338;SDS011;45117;50.960;5.500;2023-07-30T07:30:10;12.77;;;2.17;;
59338;SDS011;45117;50.960;5.500;2023-07-30T07:32:37;12.02;;;2.22;;
59338;SDS011;45117;50.960;5.500;2023-07-30T07:35:05;14.02;;;2.03;;
59338;SDS011;45117;50.960;5.500;2023-07-30T07:37:32;9.25;;;1.95;;
59338;SDS011;45117;50.960;5.500;2023-07-30T07:40:00;10.40;;;2.20;;
59338;SDS011;45117;50.960;5.500;2023-07-30T07:42:28;13.30;;;2.30;;
59338;SDS011;45117;50.960;5.500;2023-07-30T07:44:55;11.77;;;2.42;;
59338;SDS011;45117;50.960;5.500;2023-07-30T07:47:21;12.85;;;2.25;;
59338;SDS011;45117;50.960;5.500;2023-07-30T07:49:48;10.13;;;1.60;;
59338;SDS011;45117;50.960;5.500;2023-07-30T07:52:15;13.07;;;2.42;;
59338;SDS011;45117;50.960;5.500;2023-07-30T07:54:41;11.48;;;2.20;;
59338;SDS011;45117;50.960;5.500;2023-07-30T07:57:11;9.88;;;2.13;;
59338;SDS011;45117;50.960;5.500;2023-07-30T07:59:38;13.82;;;1.88;;
59338;SDS011;45117;50.960;5.500;2023-07-30T08:02:06;10.15;;;2.17;;
59338;SDS011;45117;50.960;5.500;2023-07-30T08:04:33;11.38;;;2.30;;
59338;SDS011;45117;50.960;5.500;2023-07-30T08:06:59;12.90;;;2.50;;
59338;SDS011;45117;50.960;5.500;2023-07-30T08:09:28;9.18;;;2.05;;
59338;SDS011;45117;50.960;5.500;2023-07-30T08:11:55;11.10;;;1.92;;
59338;SDS011;45117;50.960;5.500;2023-07-30T08:14:25;9.55;;;1.88;;
59338;SDS011;45117;50.960;5.500;2023-07-30T08:16:52;14.95;;;2.00;;
59338;SDS011;45117;50.960;5.500;2023-07-30T08:19:18;10.63;;;1.95;;
59338;SDS011;45117;50.960;5.500;2023-07-30T08:21:45;10.52;;;2.08;;
59338;SDS011;45117;50.960;5.500;2023-07-30T08:24:12;6.63;;;1.95;;
59338;SDS011;45117;50.960;5.500;2023-07-30T08:26:38;12.18;;;1.90;;
59338;SDS011;45117;50.960;5.500;2023-07-30T08:29:05;11.48;;;2.30;;
59338;SDS011;45117;50.960;5.500;2023-07-30T08:31:36;10.50;;;2.08;;
59338;SDS011;45117;50.960;5.500;2023-07-30T08:34:03;13.00;;;2.17;;
59338;SDS011;45117;50.960;5.500;2023-07-30T08:36:32;12.27;;;1.77;;
59338;SDS011;45117;50.960;5.500;2023-07-30T08:38:59;8.10;;;1.90;;
59338;SDS011;45117;50.960;5.500;2023-07-30T08:41:27;10.27;;;1.98;;
59338;SDS011;45117;50.960;5.500;2023-07-30T08:43:54;9.18;;;1.80;;
59338;SDS011;45117;50.960;5.500;2023-07-30T08:46:21;10.32;;;1.77;;
59338;SDS011;45117;50.960;5.500;2023-07-30T08:48:51;9.23;;;1.95;;
59338;SDS011;45117;50.960;5.500;2023-07-30T08:51:19;9.63;;;1.70;;
59338;SDS011;45117;50.960;5.500;2023-07-30T08:53:47;9.60;;;1.92;;
59338;SDS011;45117;50.960;5.500;2023-07-30T08:56:14;11.43;;;1.75;;
59338;SDS011;45117;50.960;5.500;2023-07-30T08:58:41;8.95;;;1.70;;
59338;SDS011;45117;50.960;5.500;2023-07-30T09:01:09;8.50;;;1.40;;
59338;SDS011;45117;50.960;5.500;2023-07-30T09:03:38;8.07;;;1.50;;
59338;SDS011;45117;50.960;5.500;2023-07-30T09:06:07;7.68;;;1.77;;
59338;SDS011;45117;50.960;5.500;2023-07-30T09:08:36;6.50;;;1.50;;
59338;SDS011;45117;50.960;5.500;2023-07-30T09:11:06;8.27;;;1.63;;
59338;SDS011;45117;50.960;5.500;2023-07-30T09:13:36;6.72;;;1.70;;
59338;SDS011;45117;50.960;5.500;2023-07-30T09:16:07;6.40;;;1.50;;
59338;SDS011;45117;50.960;5.500;2023-07-30T09:18:38;10.57;;;1.73;;
59338;SDS011;45117;50.960;5.500;2023-07-30T09:21:07;8.55;;;1.80;;
59338;SDS011;45117;50.960;5.500;2023-07-30T09:23:38;7.28;;;1.27;;
59338;SDS011;45117;50.960;5.500;2023-07-30T09:26:05;7.40;;;1.52;;
59338;SDS011;45117;50.960;5.500;2023-07-30T09:28:32;7.60;;;1.45;;
59338;SDS011;45117;50.960;5.500;2023-07-30T09:31:02;7.47;;;1.38;;
59338;SDS011;45117;50.960;5.500;2023-07-30T09:33:30;9.07;;;1.85;;
59338;SDS011;45117;50.960;5.500;2023-07-30T09:35:57;6.50;;;1.40;;
59338;SDS011;45117;50.960;5.500;2023-07-30T09:38:25;8.38;;;1.60;;
59338;SDS011;45117;50.960;5.500;2023-07-30T09:40:56;11.93;;;1.52;;
59338;SDS011;45117;50.960;5.500;2023-07-30T09:43:27;5.13;;;1.23;;
59338;SDS011;45117;50.960;5.500;2023-07-30T09:45:55;9.25;;;1.88;;
59338;SDS011;45117;50.960;5.500;2023-07-30T09:48:27;7.43;;;1.33;;
59338;SDS011;45117;50.960;5.500;2023-07-30T09:50:56;6.97;;;1.30;;
59338;SDS011;45117;50.960;5.500;2023-07-30T09:53:24;4.85;;;1.20;;
59338;SDS011;45117;50.960;5.500;2023-07-30T09:55:51;8.90;;;1.45;;
59338;SDS011;45117;50.960;5.500;2023-07-30T09:58:17;10.02;;;1.38;;
59338;SDS011;45117;50.960;5.500;2023-07-30T10:00:44;7.43;;;1.65;;
59338;SDS011;45117;50.960;5.500;2023-07-30T10:03:12;8.15;;;1.58;;
59338;SDS011;45117;50.960;5.500;2023-07-30T10:05:41;5.88;;;1.50;;
59338;SDS011;45117;50.960;5.500;2023-07-30T10:08:11;6.95;;;1.48;;
59338;SDS011;45117;50.960;5.500;2023-07-30T10:10:42;7.38;;;1.55;;
59338;SDS011;45117;50.960;5.500;2023-07-30T10:13:10;6.22;;;1.20;;
59338;SDS011;45117;50.960;5.500;2023-07-30T10:15:38;6.50;;;1.50;;
59338;SDS011;45117;50.960;5.500;2023-07-30T10:18:07;5.80;;;1.25;;
59338;SDS011;45117;50.960;5.500;2023-07-30T10:20:33;6.28;;;1.48;;
59338;SDS011;45117;50.960;5.500;2023-07-30T10:23:00;9.15;;;1.40;;
59338;SDS011;45117;50.960;5.500;2023-07-30T10:25:32;5.75;;;1.52;;
59338;SDS011;45117;50.960;5.500;2023-07-30T10:28:18;7.35;;;1.40;;
59338;SDS011;45117;50.960;5.500;2023-07-30T10:30:55;8.98;;;1.42;;
59338;SDS011;45117;50.960;5.500;2023-07-30T10:33:22;4.30;;;1.08;;
59338;SDS011;45117;50.960;5.500;2023-07-30T10:35:51;5.20;;;1.10;;
59338;SDS011;45117;50.960;5.500;2023-07-30T10:38:21;4.68;;;1.05;;
59338;SDS011;45117;50.960;5.500;2023-07-30T10:41:01;3.72;;;0.98;;
59338;SDS011;45117;50.960;5.500;2023-07-30T10:43:30;5.45;;;1.38;;
59338;SDS011;45117;50.960;5.500;2023-07-30T10:45:59;3.90;;;0.93;;
59338;SDS011;45117;50.960;5.500;2023-07-30T10:48:30;3.35;;;0.70;;
59338;SDS011;45117;50.960;5.500;2023-07-30T10:50:58;4.60;;;1.10;;
59338;SDS011;45117;50.960;5.500;2023-07-30T10:53:26;6.82;;;1.10;;
59338;SDS011;45117;50.960;5.500;2023-07-30T10:55:53;6.85;;;1.23;;
59338;SDS011;45117;50.960;5.500;2023-07-30T10:58:22;7.35;;;1.13;;
59338;SDS011;45117;50.960;5.500;2023-07-30T11:00:50;4.88;;;1.17;;
59338;SDS011;45117;50.960;5.500;2023-07-30T11:03:17;8.40;;;1.10;;
59338;SDS011;45117;50.960;5.500;2023-07-30T11:05:46;8.65;;;1.60;;
59338;SDS011;45117;50.960;5.500;2023-07-30T11:08:13;4.13;;;0.95;;
59338;SDS011;45117;50.960;5.500;2023-07-30T11:10:43;6.55;;;1.27;;
59338;SDS011;45117;50.960;5.500;2023-07-30T11:13:12;3.65;;;1.10;;
59338;SDS011;45117;50.960;5.500;2023-07-30T11:15:43;4.15;;;1.02;;
59338;SDS011;45117;50.960;5.500;2023-07-30T11:18:10;7.07;;;1.23;;
59338;SDS011;45117;50.960;5.500;2023-07-30T11:20:38;4.95;;;1.13;;
59338;SDS011;45117;50.960;5.500;2023-07-30T11:23:16;5.28;;;1.40;;
59338;SDS011;45117;50.960;5.500;2023-07-30T11:25:47;5.50;;;1.20;;
59338;SDS011;45117;50.960;5.500;2023-07-30T11:28:15;6.45;;;1.23;;
59338;SDS011;45117;50.960;5.500;2023-07-30T11:30:59;5.78;;;1.40;;
59338;SDS011;45117;50.960;5.500;2023-07-30T11:33:26;6.38;;;1.25;;
59338;SDS011;45117;50.960;5.500;2023-07-30T11:35:54;6.57;;;1.20;;
59338;SDS011;45117;50.960;5.500;2023-07-30T11:38:21;7.43;;;1.23;;
59338;SDS011;45117;50.960;5.500;2023-07-30T11:40:49;6.70;;;1.30;;
59338;SDS011;45117;50.960;5.500;2023-07-30T11:43:16;3.65;;;1.10;;
59338;SDS011;45117;50.960;5.500;2023-07-30T11:45:43;8.30;;;1.38;;
59338;SDS011;45117;50.960;5.500;2023-07-30T11:48:11;5.25;;;1.38;;
59338;SDS011;45117;50.960;5.500;2023-07-30T11:50:42;7.45;;;1.63;;
59338;SDS011;45117;50.960;5.500;2023-07-30T11:53:13;7.75;;;1.40;;
59338;SDS011;45117;50.960;5.500;2023-07-30T11:55:43;5.57;;;1.42;;
59338;SDS011;45117;50.960;5.500;2023-07-30T11:58:13;7.30;;;1.40;;
59338;SDS011;45117;50.960;5.500;2023-07-30T12:00:40;4.22;;;0.90;;
59338;SDS011;45117;50.960;5.500;2023-07-30T12:03:10;6.78;;;1.10;;
59338;SDS011;45117;50.960;5.500;2023-07-30T12:05:38;7.38;;;1.17;;
59338;SDS011;45117;50.960;5.500;2023-07-30T12:08:13;3.97;;;1.13;;
59338;SDS011;45117;50.960;5.500;2023-07-30T12:10:42;5.10;;;0.98;;
59338;SDS011;45117;50.960;5.500;2023-07-30T12:13:14;6.13;;;1.20;;
59338;SDS011;45117;50.960;5.500;2023-07-30T12:15:42;9.02;;;1.23;;
59338;SDS011;45117;50.960;5.500;2023-07-30T12:18:15;6.25;;;1.33;;
59338;SDS011;45117;50.960;5.500;2023-07-30T12:20:41;3.78;;;1.10;;
59338;SDS011;45117;50.960;5.500;2023-07-30T12:23:08;5.75;;;1.10;;
59338;SDS011;45117;50.960;5.500;2023-07-30T12:25:35;5.78;;;1.08;;
59338;SDS011;45117;50.960;5.500;2023-07-30T12:28:01;5.75;;;1.52;;
59338;SDS011;45117;50.960;5.500;2023-07-30T12:30:28;5.68;;;1.17;;
59338;SDS011;45117;50.960;5.500;2023-07-30T12:32:55;8.98;;;1.20;;
59338;SDS011;45117;50.960;5.500;2023-07-30T12:35:23;6.57;;;1.33;;
59338;SDS011;45117;50.960;5.500;2023-07-30T12:37:50;5.68;;;1.05;;
59338;SDS011;45117;50.960;5.500;2023-07-30T12:40:17;5.88;;;1.15;;
59338;SDS011;45117;50.960;5.500;2023-07-30T12:42:43;4.70;;;0.90;;
59338;SDS011;45117;50.960;5.500;2023-07-30T12:45:10;6.47;;;1.20;;
59338;SDS011;45117;50.960;5.500;2023-07-30T12:47:37;5.35;;;1.13;;
59338;SDS011;45117;50.960;5.500;2023-07-30T12:50:04;6.28;;;1.15;;
59338;SDS011;45117;50.960;5.500;2023-07-30T12:52:33;6.30;;;1.42;;
59338;SDS011;45117;50.960;5.500;2023-07-30T12:55:07;6.28;;;1.25;;
59338;SDS011;45117;50.960;5.500;2023-07-30T12:57:33;7.10;;;1.15;;
59338;SDS011;45117;50.960;5.500;2023-07-30T13:00:00;6.30;;;1.42;;
59338;SDS011;45117;50.960;5.500;2023-07-30T13:02:28;7.50;;;1.48;;
59338;SDS011;45117;50.960;5.500;2023-07-30T13:04:58;6.53;;;1.52;;
59338;SDS011;45117;50.960;5.500;2023-07-30T13:07:25;7.78;;;1.20;;
59338;SDS011;45117;50.960;5.500;2023-07-30T13:10:02;4.18;;;1.30;;
59338;SDS011;45117;50.960;5.500;2023-07-30T13:12:30;4.47;;;1.10;;
59338;SDS011;45117;50.960;5.500;2023-07-30T13:14:57;6.82;;;1.30;;
59338;SDS011;45117;50.960;5.500;2023-07-30T13:17:23;5.30;;;1.20;;
59338;SDS011;45117;50.960;5.500;2023-07-30T13:19:50;7.30;;;1.10;;
59338;SDS011;45117;50.960;5.500;2023-07-30T13:22:17;5.22;;;0.95;;
59338;SDS011;45117;50.960;5.500;2023-07-30T13:24:43;5.47;;;1.30;;
59338;SDS011;45117;50.960;5.500;2023-07-30T13:27:11;5.07;;;0.95;;
59338;SDS011;45117;50.960;5.500;2023-07-30T13:29:38;5.75;;;1.00;;
59338;SDS011;45117;50.960;5.500;2023-07-30T13:32:05;4.45;;;0.90;;
59338;SDS011;45117;50.960;5.500;2023-07-30T13:34:32;5.90;;;1.20;;
59338;SDS011;45117;50.960;5.500;2023-07-30T13:36:58;4.32;;;0.80;;
59338;SDS011;45117;50.960;5.500;2023-07-30T13:39:25;4.80;;;1.10;;
59338;SDS011;45117;50.960;5.500;2023-07-30T13:41:52;6.38;;;1.13;;
59338;SDS011;45117;50.960;5.500;2023-07-30T13:44:20;4.28;;;1.13;;
59338;SDS011;45117;50.960;5.500;2023-07-30T13:46:47;3.95;;;1.10;;
59338;SDS011;45117;50.960;5.500;2023-07-30T13:49:13;4.05;;;1.02;;
59338;SDS011;45117;50.960;5.500;2023-07-30T13:51:40;7.35;;;1.15;;
59338;SDS011;45117;50.960;5.500;2023-07-30T13:54:06;4.25;;;0.95;;
59338;SDS011;45117;50.960;5.500;2023-07-30T13:56:33;5.80;;;1.10;;
59338;SDS011;45117;50.960;5.500;2023-07-30T13:59:00;5.00;;;0.93;;
59338;SDS011;45117;50.960;5.500;2023-07-30T14:01:29;6.32;;;1.10;;
59338;SDS011;45117;50.960;5.500;2023-07-30T14:03:55;5.03;;;1.30;;
59338;SDS011;45117;50.960;5.500;2023-07-30T14:06:22;4.13;;;0.80;;
59338;SDS011;45117;50.960;5.500;2023-07-30T14:08:49;4.10;;;1.10;;
59338;SDS011;45117;50.960;5.500;2023-07-30T14:11:16;4.05;;;1.10;;
59338;SDS011;45117;50.960;5.500;2023-07-30T14:13:42;3.60;;;1.08;;
59338;SDS011;45117;50.960;5.500;2023-07-30T14:16:09;4.45;;;1.15;;
59338;SDS011;45117;50.960;5.500;2023-07-30T14:18:37;4.28;;;0.88;;
59338;SDS011;45117;50.960;5.500;2023-07-30T14:21:04;4.47;;;1.10;;
59338;SDS011;45117;50.960;5.500;2023-07-30T14:23:31;7.80;;;1.33;;
59338;SDS011;45117;50.960;5.500;2023-07-30T14:26:00;6.32;;;1.27;;
59338;SDS011;45117;50.960;5.500;2023-07-30T14:28:26;4.53;;;1.15;;
59338;SDS011;45117;50.960;5.500;2023-07-30T14:30:53;4.82;;;1.00;;
59338;SDS011;45117;50.960;5.500;2023-07-30T14:33:19;4.30;;;1.23;;
59338;SDS011;45117;50.960;5.500;2023-07-30T14:35:47;4.95;;;1.02;;
59338;SDS011;45117;50.960;5.500;2023-07-30T14:38:14;3.08;;;1.00;;
59338;SDS011;45117;50.960;5.500;2023-07-30T14:40:42;4.57;;;1.10;;
59338;SDS011;45117;50.960;5.500;2023-07-30T14:43:09;4.88;;;1.08;;
59338;SDS011;45117;50.960;5.500;2023-07-30T14:45:35;3.05;;;0.80;;
59338;SDS011;45117;50.960;5.500;2023-07-30T14:48:02;3.05;;;1.00;;